sensor_id;sensor_type;location;lat;lon;timestamp;temperature;humidity
909;DHT22;441;51.192;6.788;2022-12-19T00:01:14;20.40;41.80
909;DHT22;441;51.192;6.788;2022-12-19T00:03:42;20.40;41.80
909;DHT22;441;51.192;6.788;2022-12-19T00:06:10;20.30;41.70
909;DHT22;441;51.192;6.788;2022-12-19T00:08:37;20.30;41.70
909;DHT22;441;51.192;6.788;2022-12-19T00:11:03;20.30;41.80
909;DHT22;441;51.192;6.788;2022-12-19T00:13:31;20.30;41.80
909;DHT22;441;51.192;6.788;2022-12-19T00:16:04;20.20;41.80
909;DHT22;441;51.192;6.788;2022-12-19T00:18:31;20.20;41.90
909;DHT22;441;51.192;6.788;2022-12-19T00:20:59;20.20;41.90
909;DHT22;441;51.192;6.788;2022-12-19T00:23:29;20.10;41.90
909;DHT22;441;51.192;6.788;2022-12-19T00:26:06;20.10;42.00
909;DHT22;441;51.192;6.788;2022-12-19T00:28:33;20.10;42.00
909;DHT22;441;51.192;6.788;2022-12-19T00:31:02;20.10;42.10
909;DHT22;441;51.192;6.788;2022-12-19T00:33:29;20.10;42.20
909;DHT22;441;51.192;6.788;2022-12-19T00:35:57;20.10;42.20
909;DHT22;441;51.192;6.788;2022-12-19T00:38:24;20.00;42.20
909;DHT22;441;51.192;6.788;2022-12-19T00:40:50;20.00;42.20
909;DHT22;441;51.192;6.788;2022-12-19T00:43:17;20.00;42.20
909;DHT22;441;51.192;6.788;2022-12-19T00:45:44;19.90;42.20
909;DHT22;441;51.192;6.788;2022-12-19T00:48:15;19.90;42.80
909;DHT22;441;51.192;6.788;2022-12-19T00:50:42;19.90;42.30
909;DHT22;441;51.192;6.788;2022-12-19T00:53:08;19.90;42.30
909;DHT22;441;51.192;6.788;2022-12-19T00:55:37;19.90;42.30
909;DHT22;441;51.192;6.788;2022-12-19T00:58:04;19.90;42.30
909;DHT22;441;51.192;6.788;2022-12-19T01:00:30;19.90;42.30
909;DHT22;441;51.192;6.788;2022-12-19T01:02:57;19.80;42.30
909;DHT22;441;51.192;6.788;2022-12-19T01:05:25;19.80;42.30
909;DHT22;441;51.192;6.788;2022-12-19T01:07:52;19.80;42.30
909;DHT22;441;51.192;6.788;2022-12-19T01:10:19;19.80;42.30
909;DHT22;441;51.192;6.788;2022-12-19T01:12:46;19.70;42.30
909;DHT22;441;51.192;6.788;2022-12-19T01:15:13;19.70;42.30
909;DHT22;441;51.192;6.788;2022-12-19T01:17:40;19.70;42.30
909;DHT22;441;51.192;6.788;2022-12-19T01:20:08;19.70;42.40
909;DHT22;441;51.192;6.788;2022-12-19T01:22:36;19.70;42.40
909;DHT22;441;51.192;6.788;2022-12-19T01:25:04;19.70;42.40
909;DHT22;441;51.192;6.788;2022-12-19T01:27:31;19.70;42.90
909;DHT22;441;51.192;6.788;2022-12-19T01:29:58;19.70;42.50
909;DHT22;441;51.192;6.788;2022-12-19T01:32:25;19.60;42.30
909;DHT22;441;51.192;6.788;2022-12-19T01:34:52;19.60;42.40
909;DHT22;441;51.192;6.788;2022-12-19T01:37:19;19.60;42.40
909;DHT22;441;51.192;6.788;2022-12-19T01:39:47;19.60;42.40
909;DHT22;441;51.192;6.788;2022-12-19T01:42:20;19.60;42.40
909;DHT22;441;51.192;6.788;2022-12-19T01:48:14;19.60;42.50
909;DHT22;441;51.192;6.788;2022-12-19T01:50:49;19.60;42.50
909;DHT22;441;51.192;6.788;2022-12-19T01:53:17;19.50;42.50
909;DHT22;441;51.192;6.788;2022-12-19T01:55:46;19.50;42.50
909;DHT22;441;51.192;6.788;2022-12-19T01:58:13;19.50;42.50
909;DHT22;441;51.192;6.788;2022-12-19T02:00:41;19.50;42.50
909;DHT22;441;51.192;6.788;2022-12-19T02:03:13;19.50;42.50
909;DHT22;441;51.192;6.788;2022-12-19T02:05:42;19.50;43.10
909;DHT22;441;51.192;6.788;2022-12-19T02:08:10;19.50;42.50
909;DHT22;441;51.192;6.788;2022-12-19T02:10:37;19.50;42.50
909;DHT22;441;51.192;6.788;2022-12-19T02:13:05;19.50;42.50
909;DHT22;441;51.192;6.788;2022-12-19T02:15:37;19.50;42.50
909;DHT22;441;51.192;6.788;2022-12-19T02:18:12;19.40;42.40
909;DHT22;441;51.192;6.788;2022-12-19T02:21:11;19.40;42.50
909;DHT22;441;51.192;6.788;2022-12-19T02:24:06;19.40;42.50
909;DHT22;441;51.192;6.788;2022-12-19T02:26:55;19.40;42.50
909;DHT22;441;51.192;6.788;2022-12-19T02:32:30;19.40;42.50
909;DHT22;441;51.192;6.788;2022-12-19T02:35:04;19.40;42.50
909;DHT22;441;51.192;6.788;2022-12-19T02:37:36;19.40;42.60
909;DHT22;441;51.192;6.788;2022-12-19T02:40:08;19.40;42.60
909;DHT22;441;51.192;6.788;2022-12-19T02:42:39;19.30;42.60
909;DHT22;441;51.192;6.788;2022-12-19T02:45:10;19.30;42.60
909;DHT22;441;51.192;6.788;2022-12-19T02:47:38;19.30;42.60
909;DHT22;441;51.192;6.788;2022-12-19T02:50:06;19.30;42.60
909;DHT22;441;51.192;6.788;2022-12-19T02:52:47;19.30;42.70
909;DHT22;441;51.192;6.788;2022-12-19T02:55:20;19.30;42.60
909;DHT22;441;51.192;6.788;2022-12-19T02:58:12;19.30;42.70
909;DHT22;441;51.192;6.788;2022-12-19T03:00:49;19.30;42.70
909;DHT22;441;51.192;6.788;2022-12-19T03:03:24;19.30;42.70
909;DHT22;441;51.192;6.788;2022-12-19T03:05:59;19.30;42.70
909;DHT22;441;51.192;6.788;2022-12-19T03:08:36;19.30;42.70
909;DHT22;441;51.192;6.788;2022-12-19T03:11:06;19.30;43.30
909;DHT22;441;51.192;6.788;2022-12-19T03:13:36;19.20;42.60
909;DHT22;441;51.192;6.788;2022-12-19T03:16:07;19.20;42.60
909;DHT22;441;51.192;6.788;2022-12-19T03:18:35;19.20;42.60
909;DHT22;441;51.192;6.788;2022-12-19T03:21:08;19.20;42.70
909;DHT22;441;51.192;6.788;2022-12-19T03:23:37;19.20;42.70
909;DHT22;441;51.192;6.788;2022-12-19T03:26:08;19.20;42.60
909;DHT22;441;51.192;6.788;2022-12-19T03:28:39;19.20;42.70
909;DHT22;441;51.192;6.788;2022-12-19T03:31:08;19.20;42.70
909;DHT22;441;51.192;6.788;2022-12-19T03:33:39;19.20;42.70
909;DHT22;441;51.192;6.788;2022-12-19T03:36:10;19.20;42.60
909;DHT22;441;51.192;6.788;2022-12-19T03:38:39;19.20;42.70
909;DHT22;441;51.192;6.788;2022-12-19T03:41:10;19.20;42.70
909;DHT22;441;51.192;6.788;2022-12-19T03:43:39;19.20;42.70
909;DHT22;441;51.192;6.788;2022-12-19T03:46:11;19.20;42.80
909;DHT22;441;51.192;6.788;2022-12-19T03:48:45;19.20;42.80
909;DHT22;441;51.192;6.788;2022-12-19T03:51:19;19.20;42.80
909;DHT22;441;51.192;6.788;2022-12-19T03:53:52;19.20;42.80
909;DHT22;441;51.192;6.788;2022-12-19T03:56:30;19.20;42.80
909;DHT22;441;51.192;6.788;2022-12-19T03:59:00;19.20;43.30
909;DHT22;441;51.192;6.788;2022-12-19T04:01:32;19.10;42.80
909;DHT22;441;51.192;6.788;2022-12-19T04:04:02;19.20;42.80
909;DHT22;441;51.192;6.788;2022-12-19T04:06:32;19.10;42.80
909;DHT22;441;51.192;6.788;2022-12-19T04:09:00;19.20;42.90
909;DHT22;441;51.192;6.788;2022-12-19T04:11:33;19.10;42.70
909;DHT22;441;51.192;6.788;2022-12-19T04:14:03;19.10;42.80
909;DHT22;441;51.192;6.788;2022-12-19T04:16:38;19.10;42.70
909;DHT22;441;51.192;6.788;2022-12-19T04:19:14;19.10;42.70
909;DHT22;441;51.192;6.788;2022-12-19T04:21:48;19.10;42.70
909;DHT22;441;51.192;6.788;2022-12-19T04:24:20;19.10;42.70
909;DHT22;441;51.192;6.788;2022-12-19T04:26:49;19.10;42.80
909;DHT22;441;51.192;6.788;2022-12-19T04:29:18;19.20;42.90
909;DHT22;441;51.192;6.788;2022-12-19T04:31:46;19.20;42.90
909;DHT22;441;51.192;6.788;2022-12-19T04:34:18;19.20;42.80
909;DHT22;441;51.192;6.788;2022-12-19T04:36:46;19.20;42.90
909;DHT22;441;51.192;6.788;2022-12-19T04:39:13;19.20;42.90
909;DHT22;441;51.192;6.788;2022-12-19T04:41:40;19.20;42.90
909;DHT22;441;51.192;6.788;2022-12-19T04:44:07;19.20;42.80
909;DHT22;441;51.192;6.788;2022-12-19T04:46:33;19.20;42.80
909;DHT22;441;51.192;6.788;2022-12-19T04:49:00;19.20;42.90
909;DHT22;441;51.192;6.788;2022-12-19T04:51:28;19.20;42.90
909;DHT22;441;51.192;6.788;2022-12-19T04:53:56;19.20;42.90
909;DHT22;441;51.192;6.788;2022-12-19T04:56:23;19.20;42.90
909;DHT22;441;51.192;6.788;2022-12-19T04:58:55;19.20;42.90
909;DHT22;441;51.192;6.788;2022-12-19T05:01:23;19.20;42.90
909;DHT22;441;51.192;6.788;2022-12-19T05:03:49;19.20;42.90
909;DHT22;441;51.192;6.788;2022-12-19T05:06:18;19.10;42.80
909;DHT22;441;51.192;6.788;2022-12-19T05:08:46;19.10;42.80
909;DHT22;441;51.192;6.788;2022-12-19T05:11:14;19.10;42.80
909;DHT22;441;51.192;6.788;2022-12-19T05:13:41;19.10;42.80
909;DHT22;441;51.192;6.788;2022-12-19T05:16:10;19.10;42.80
909;DHT22;441;51.192;6.788;2022-12-19T05:18:37;19.10;42.90
909;DHT22;441;51.192;6.788;2022-12-19T05:21:05;19.10;42.90
909;DHT22;441;51.192;6.788;2022-12-19T05:23:31;19.10;42.90
909;DHT22;441;51.192;6.788;2022-12-19T05:26:02;19.10;42.90
909;DHT22;441;51.192;6.788;2022-12-19T05:28:29;19.10;42.90
909;DHT22;441;51.192;6.788;2022-12-19T05:31:02;19.10;42.90
909;DHT22;441;51.192;6.788;2022-12-19T05:33:29;19.10;42.90
909;DHT22;441;51.192;6.788;2022-12-19T05:35:56;19.10;42.90
909;DHT22;441;51.192;6.788;2022-12-19T05:38:23;19.10;42.90
909;DHT22;441;51.192;6.788;2022-12-19T05:40:49;19.10;42.90
909;DHT22;441;51.192;6.788;2022-12-19T05:43:18;19.10;42.90
909;DHT22;441;51.192;6.788;2022-12-19T05:45:44;19.10;42.90
909;DHT22;441;51.192;6.788;2022-12-19T05:48:12;19.10;42.90
909;DHT22;441;51.192;6.788;2022-12-19T05:50:39;19.10;42.90
909;DHT22;441;51.192;6.788;2022-12-19T05:53:05;19.10;42.90
909;DHT22;441;51.192;6.788;2022-12-19T05:55:32;19.20;43.00
909;DHT22;441;51.192;6.788;2022-12-19T05:57:59;19.20;43.00
909;DHT22;441;51.192;6.788;2022-12-19T06:00:28;19.20;43.00
909;DHT22;441;51.192;6.788;2022-12-19T06:02:54;19.20;43.00
909;DHT22;441;51.192;6.788;2022-12-19T06:05:21;19.20;43.00
909;DHT22;441;51.192;6.788;2022-12-19T06:07:48;19.20;43.00
909;DHT22;441;51.192;6.788;2022-12-19T06:10:15;19.20;43.00
909;DHT22;441;51.192;6.788;2022-12-19T06:12:42;19.20;43.00
909;DHT22;441;51.192;6.788;2022-12-19T06:15:10;19.20;43.10
909;DHT22;441;51.192;6.788;2022-12-19T06:17:38;19.10;43.00
909;DHT22;441;51.192;6.788;2022-12-19T06:20:06;19.20;43.20
909;DHT22;441;51.192;6.788;2022-12-19T06:22:33;19.20;43.30
909;DHT22;441;51.192;6.788;2022-12-19T06:25:00;19.20;43.10
909;DHT22;441;51.192;6.788;2022-12-19T06:27:27;19.30;43.00
909;DHT22;441;51.192;6.788;2022-12-19T06:29:54;19.30;42.90
909;DHT22;441;51.192;6.788;2022-12-19T06:32:21;19.30;42.90
909;DHT22;441;51.192;6.788;2022-12-19T06:34:49;19.30;42.90
909;DHT22;441;51.192;6.788;2022-12-19T06:37:16;19.40;42.90
909;DHT22;441;51.192;6.788;2022-12-19T06:39:42;19.40;42.90
909;DHT22;441;51.192;6.788;2022-12-19T06:42:09;19.40;42.90
909;DHT22;441;51.192;6.788;2022-12-19T06:44:47;19.40;42.90
909;DHT22;441;51.192;6.788;2022-12-19T06:47:14;19.40;42.90
909;DHT22;441;51.192;6.788;2022-12-19T06:49:41;19.40;42.90
909;DHT22;441;51.192;6.788;2022-12-19T06:52:10;19.40;43.00
909;DHT22;441;51.192;6.788;2022-12-19T06:54:37;19.40;43.10
909;DHT22;441;51.192;6.788;2022-12-19T06:57:04;19.50;43.40
909;DHT22;441;51.192;6.788;2022-12-19T06:59:31;19.50;44.00
909;DHT22;441;51.192;6.788;2022-12-19T07:02:00;19.60;44.80
909;DHT22;441;51.192;6.788;2022-12-19T07:04:31;19.60;45.70
909;DHT22;441;51.192;6.788;2022-12-19T07:06:59;19.60;46.40
909;DHT22;441;51.192;6.788;2022-12-19T07:09:28;19.60;47.60
909;DHT22;441;51.192;6.788;2022-12-19T07:11:56;19.60;48.90
909;DHT22;441;51.192;6.788;2022-12-19T07:14:22;19.60;49.40
909;DHT22;441;51.192;6.788;2022-12-19T07:16:50;19.60;49.70
909;DHT22;441;51.192;6.788;2022-12-19T07:19:19;19.70;50.60
909;DHT22;441;51.192;6.788;2022-12-19T07:21:46;19.70;50.20
909;DHT22;441;51.192;6.788;2022-12-19T07:24:13;19.70;50.20
909;DHT22;441;51.192;6.788;2022-12-19T07:26:42;19.70;49.80
909;DHT22;441;51.192;6.788;2022-12-19T07:29:10;19.70;49.30
909;DHT22;441;51.192;6.788;2022-12-19T07:31:37;19.70;48.80
909;DHT22;441;51.192;6.788;2022-12-19T07:34:04;19.70;48.90
909;DHT22;441;51.192;6.788;2022-12-19T07:36:31;19.70;48.00
909;DHT22;441;51.192;6.788;2022-12-19T07:38:58;19.70;47.70
909;DHT22;441;51.192;6.788;2022-12-19T07:41:24;19.70;47.30
909;DHT22;441;51.192;6.788;2022-12-19T07:43:53;19.70;47.10
909;DHT22;441;51.192;6.788;2022-12-19T07:46:19;19.70;46.80
909;DHT22;441;51.192;6.788;2022-12-19T07:48:47;19.70;46.60
909;DHT22;441;51.192;6.788;2022-12-19T07:51:15;19.70;46.40
909;DHT22;441;51.192;6.788;2022-12-19T07:53:41;19.80;46.80
909;DHT22;441;51.192;6.788;2022-12-19T07:56:08;19.80;46.10
909;DHT22;441;51.192;6.788;2022-12-19T07:58:35;19.80;45.90
909;DHT22;441;51.192;6.788;2022-12-19T08:01:03;19.80;45.80
909;DHT22;441;51.192;6.788;2022-12-19T08:03:30;19.80;45.70
909;DHT22;441;51.192;6.788;2022-12-19T08:06:02;19.80;45.60
909;DHT22;441;51.192;6.788;2022-12-19T08:08:29;19.80;45.50
909;DHT22;441;51.192;6.788;2022-12-19T08:11:02;19.80;45.40
909;DHT22;441;51.192;6.788;2022-12-19T08:13:30;19.80;45.20
909;DHT22;441;51.192;6.788;2022-12-19T08:15:58;19.90;45.10
909;DHT22;441;51.192;6.788;2022-12-19T08:18:27;19.90;45.00
909;DHT22;441;51.192;6.788;2022-12-19T08:20:54;19.90;44.90
909;DHT22;441;51.192;6.788;2022-12-19T08:23:20;19.90;44.80
909;DHT22;441;51.192;6.788;2022-12-19T08:25:47;19.90;44.70
909;DHT22;441;51.192;6.788;2022-12-19T08:28:14;20.00;44.80
909;DHT22;441;51.192;6.788;2022-12-19T08:30:41;19.90;44.60
909;DHT22;441;51.192;6.788;2022-12-19T08:33:08;20.00;44.60
909;DHT22;441;51.192;6.788;2022-12-19T08:35:36;20.00;44.50
909;DHT22;441;51.192;6.788;2022-12-19T08:38:03;20.00;44.50
909;DHT22;441;51.192;6.788;2022-12-19T08:40:30;20.00;44.30
909;DHT22;441;51.192;6.788;2022-12-19T08:42:57;20.00;44.30
909;DHT22;441;51.192;6.788;2022-12-19T08:45:24;20.00;44.20
909;DHT22;441;51.192;6.788;2022-12-19T08:47:51;19.90;44.10
909;DHT22;441;51.192;6.788;2022-12-19T08:50:18;20.00;44.10
909;DHT22;441;51.192;6.788;2022-12-19T08:52:46;20.00;44.00
909;DHT22;441;51.192;6.788;2022-12-19T08:55:13;19.90;43.90
909;DHT22;441;51.192;6.788;2022-12-19T08:57:39;19.90;43.90
909;DHT22;441;51.192;6.788;2022-12-19T09:00:07;19.90;43.80
909;DHT22;441;51.192;6.788;2022-12-19T09:02:34;19.90;43.80
909;DHT22;441;51.192;6.788;2022-12-19T09:05:01;19.90;43.80
909;DHT22;441;51.192;6.788;2022-12-19T09:07:28;19.90;43.70
909;DHT22;441;51.192;6.788;2022-12-19T09:09:56;19.90;43.70
909;DHT22;441;51.192;6.788;2022-12-19T09:12:23;19.90;43.60
909;DHT22;441;51.192;6.788;2022-12-19T09:14:50;19.90;43.70
909;DHT22;441;51.192;6.788;2022-12-19T09:17:17;19.90;43.60
909;DHT22;441;51.192;6.788;2022-12-19T09:19:43;19.90;43.60
909;DHT22;441;51.192;6.788;2022-12-19T09:22:10;19.90;43.60
909;DHT22;441;51.192;6.788;2022-12-19T09:24:37;19.90;43.60
909;DHT22;441;51.192;6.788;2022-12-19T09:27:06;19.90;43.50
909;DHT22;441;51.192;6.788;2022-12-19T09:29:33;19.90;43.50
909;DHT22;441;51.192;6.788;2022-12-19T09:31:59;19.90;43.50
909;DHT22;441;51.192;6.788;2022-12-19T09:34:27;20.00;43.50
909;DHT22;441;51.192;6.788;2022-12-19T09:36:54;20.00;43.50
909;DHT22;441;51.192;6.788;2022-12-19T09:39:21;20.00;43.40
909;DHT22;441;51.192;6.788;2022-12-19T09:45:08;20.10;43.40
909;DHT22;441;51.192;6.788;2022-12-19T09:47:39;20.10;43.40
909;DHT22;441;51.192;6.788;2022-12-19T09:50:21;20.10;43.30
909;DHT22;441;51.192;6.788;2022-12-19T09:52:55;20.10;43.80
909;DHT22;441;51.192;6.788;2022-12-19T09:55:25;20.10;43.30
909;DHT22;441;51.192;6.788;2022-12-19T09:57:58;20.10;43.20
909;DHT22;441;51.192;6.788;2022-12-19T10:00:31;20.10;43.50
909;DHT22;441;51.192;6.788;2022-12-19T10:03:04;20.00;43.10
909;DHT22;441;51.192;6.788;2022-12-19T10:05:39;20.10;43.10
909;DHT22;441;51.192;6.788;2022-12-19T10:08:15;20.10;43.10
909;DHT22;441;51.192;6.788;2022-12-19T10:10:54;20.00;43.10
909;DHT22;441;51.192;6.788;2022-12-19T10:13:35;20.00;43.10
909;DHT22;441;51.192;6.788;2022-12-19T10:16:10;20.10;43.10
909;DHT22;441;51.192;6.788;2022-12-19T10:18:45;20.10;43.00
909;DHT22;441;51.192;6.788;2022-12-19T10:21:24;20.10;43.00
909;DHT22;441;51.192;6.788;2022-12-19T10:24:09;20.10;43.50
909;DHT22;441;51.192;6.788;2022-12-19T10:26:45;20.00;42.90
909;DHT22;441;51.192;6.788;2022-12-19T10:29:35;20.00;42.90
909;DHT22;441;51.192;6.788;2022-12-19T10:32:06;20.10;43.00
909;DHT22;441;51.192;6.788;2022-12-19T10:34:40;20.00;42.90
909;DHT22;441;51.192;6.788;2022-12-19T10:37:13;20.00;42.90
909;DHT22;441;51.192;6.788;2022-12-19T10:39:49;20.00;42.90
909;DHT22;441;51.192;6.788;2022-12-19T10:42:26;20.10;42.90
909;DHT22;441;51.192;6.788;2022-12-19T10:44:58;20.10;42.90
909;DHT22;441;51.192;6.788;2022-12-19T10:47:27;20.10;42.90
909;DHT22;441;51.192;6.788;2022-12-19T10:49:54;20.10;42.90
909;DHT22;441;51.192;6.788;2022-12-19T10:52:47;20.10;42.90
909;DHT22;441;51.192;6.788;2022-12-19T10:55:29;20.10;42.90
909;DHT22;441;51.192;6.788;2022-12-19T10:57:58;20.10;42.90
909;DHT22;441;51.192;6.788;2022-12-19T11:00:28;20.10;42.90
909;DHT22;441;51.192;6.788;2022-12-19T11:03:09;20.10;42.90
909;DHT22;441;51.192;6.788;2022-12-19T11:05:41;20.10;42.80
909;DHT22;441;51.192;6.788;2022-12-19T11:08:15;20.20;42.80
909;DHT22;441;51.192;6.788;2022-12-19T11:10:43;20.10;42.80
909;DHT22;441;51.192;6.788;2022-12-19T11:13:18;20.10;42.70
909;DHT22;441;51.192;6.788;2022-12-19T11:15:48;20.10;42.70
909;DHT22;441;51.192;6.788;2022-12-19T11:18:15;20.10;42.80
909;DHT22;441;51.192;6.788;2022-12-19T11:20:53;20.10;42.70
909;DHT22;441;51.192;6.788;2022-12-19T11:23:21;20.10;42.70
909;DHT22;441;51.192;6.788;2022-12-19T11:25:55;20.10;42.70
909;DHT22;441;51.192;6.788;2022-12-19T11:28:24;20.10;42.70
909;DHT22;441;51.192;6.788;2022-12-19T11:31:07;20.10;42.70
909;DHT22;441;51.192;6.788;2022-12-19T11:33:36;20.10;42.70
909;DHT22;441;51.192;6.788;2022-12-19T11:36:04;20.10;42.60
909;DHT22;441;51.192;6.788;2022-12-19T11:38:35;20.10;42.60
909;DHT22;441;51.192;6.788;2022-12-19T11:41:12;20.10;42.60
909;DHT22;441;51.192;6.788;2022-12-19T11:43:44;20.10;42.60
909;DHT22;441;51.192;6.788;2022-12-19T11:46:28;20.10;42.60
909;DHT22;441;51.192;6.788;2022-12-19T11:49:07;20.10;42.60
909;DHT22;441;51.192;6.788;2022-12-19T11:51:41;20.10;42.60
909;DHT22;441;51.192;6.788;2022-12-19T11:54:13;20.10;42.60
909;DHT22;441;51.192;6.788;2022-12-19T11:56:41;20.10;42.60
909;DHT22;441;51.192;6.788;2022-12-19T11:59:16;20.10;42.60
909;DHT22;441;51.192;6.788;2022-12-19T12:02:11;20.10;42.60
909;DHT22;441;51.192;6.788;2022-12-19T12:07:54;20.10;42.60
909;DHT22;441;51.192;6.788;2022-12-19T12:10:23;20.20;42.70
909;DHT22;441;51.192;6.788;2022-12-19T12:13:02;20.20;42.70
909;DHT22;441;51.192;6.788;2022-12-19T12:15:42;20.20;42.70
909;DHT22;441;51.192;6.788;2022-12-19T12:18:22;20.30;42.70
909;DHT22;441;51.192;6.788;2022-12-19T12:20:56;20.30;42.70
909;DHT22;441;51.192;6.788;2022-12-19T12:23:28;20.30;42.70
909;DHT22;441;51.192;6.788;2022-12-19T12:26:02;20.30;42.60
909;DHT22;441;51.192;6.788;2022-12-19T12:28:44;20.30;42.60
909;DHT22;441;51.192;6.788;2022-12-19T12:31:27;20.30;42.60
909;DHT22;441;51.192;6.788;2022-12-19T12:34:08;20.30;42.60
909;DHT22;441;51.192;6.788;2022-12-19T12:36:42;20.30;42.60
909;DHT22;441;51.192;6.788;2022-12-19T12:39:19;20.20;42.50
909;DHT22;441;51.192;6.788;2022-12-19T12:41:56;20.20;42.50
909;DHT22;441;51.192;6.788;2022-12-19T12:44:32;20.20;42.50
909;DHT22;441;51.192;6.788;2022-12-19T12:47:04;20.20;42.50
909;DHT22;441;51.192;6.788;2022-12-19T12:49:38;20.20;43.00
909;DHT22;441;51.192;6.788;2022-12-19T12:52:08;20.30;42.50
909;DHT22;441;51.192;6.788;2022-12-19T12:54:38;20.30;42.50
909;DHT22;441;51.192;6.788;2022-12-19T12:57:18;20.30;42.50
909;DHT22;441;51.192;6.788;2022-12-19T12:59:46;20.30;42.50
909;DHT22;441;51.192;6.788;2022-12-19T13:02:16;20.20;42.40
909;DHT22;441;51.192;6.788;2022-12-19T13:04:56;20.20;42.50
909;DHT22;441;51.192;6.788;2022-12-19T13:07:29;20.20;42.50
909;DHT22;441;51.192;6.788;2022-12-19T13:10:17;20.20;42.50
909;DHT22;441;51.192;6.788;2022-12-19T13:12:58;20.20;42.50
909;DHT22;441;51.192;6.788;2022-12-19T13:15:39;20.20;42.50
909;DHT22;441;51.192;6.788;2022-12-19T13:18:30;20.20;42.50
909;DHT22;441;51.192;6.788;2022-12-19T13:21:02;20.20;42.50
909;DHT22;441;51.192;6.788;2022-12-19T13:23:44;20.30;42.60
909;DHT22;441;51.192;6.788;2022-12-19T13:29:33;20.40;42.70
909;DHT22;441;51.192;6.788;2022-12-19T13:32:13;20.40;42.60
909;DHT22;441;51.192;6.788;2022-12-19T13:34:51;20.50;42.70
909;DHT22;441;51.192;6.788;2022-12-19T13:37:27;20.50;42.60
909;DHT22;441;51.192;6.788;2022-12-19T13:42:56;20.60;42.60
909;DHT22;441;51.192;6.788;2022-12-19T13:45:48;20.60;42.60
909;DHT22;441;51.192;6.788;2022-12-19T13:48:23;20.60;42.60
909;DHT22;441;51.192;6.788;2022-12-19T13:50:52;20.60;42.60
909;DHT22;441;51.192;6.788;2022-12-19T13:53:24;20.60;42.50
909;DHT22;441;51.192;6.788;2022-12-19T13:55:53;20.60;42.50
909;DHT22;441;51.192;6.788;2022-12-19T13:58:22;20.60;42.50
909;DHT22;441;51.192;6.788;2022-12-19T14:00:51;20.60;42.50
909;DHT22;441;51.192;6.788;2022-12-19T14:03:30;20.60;42.50
909;DHT22;441;51.192;6.788;2022-12-19T14:05:59;20.60;42.40
909;DHT22;441;51.192;6.788;2022-12-19T14:08:29;20.60;42.40
909;DHT22;441;51.192;6.788;2022-12-19T14:10:56;20.60;42.40
909;DHT22;441;51.192;6.788;2022-12-19T14:13:24;20.60;42.40
909;DHT22;441;51.192;6.788;2022-12-19T14:16:13;20.50;42.40
909;DHT22;441;51.192;6.788;2022-12-19T14:18:46;20.50;42.30
909;DHT22;441;51.192;6.788;2022-12-19T14:21:16;20.50;42.40
909;DHT22;441;51.192;6.788;2022-12-19T14:23:44;20.50;42.40
909;DHT22;441;51.192;6.788;2022-12-19T14:26:13;20.50;42.40
909;DHT22;441;51.192;6.788;2022-12-19T14:28:49;20.50;42.40
909;DHT22;441;51.192;6.788;2022-12-19T14:31:18;20.50;42.40
909;DHT22;441;51.192;6.788;2022-12-19T14:33:46;20.40;42.30
909;DHT22;441;51.192;6.788;2022-12-19T14:36:20;20.40;42.30
909;DHT22;441;51.192;6.788;2022-12-19T14:38:49;20.40;42.40
909;DHT22;441;51.192;6.788;2022-12-19T14:41:20;20.40;42.40
909;DHT22;441;51.192;6.788;2022-12-19T14:44:21;20.40;42.40
909;DHT22;441;51.192;6.788;2022-12-19T14:46:59;20.40;42.40
909;DHT22;441;51.192;6.788;2022-12-19T14:49:32;20.40;42.60
909;DHT22;441;51.192;6.788;2022-12-19T14:52:04;20.50;43.10
909;DHT22;441;51.192;6.788;2022-12-19T14:54:34;20.50;45.80
909;DHT22;441;51.192;6.788;2022-12-19T14:57:04;20.60;45.60
909;DHT22;441;51.192;6.788;2022-12-19T14:59:43;20.70;46.50
909;DHT22;441;51.192;6.788;2022-12-19T15:02:18;20.80;45.30
909;DHT22;441;51.192;6.788;2022-12-19T15:05:01;20.90;45.00
909;DHT22;441;51.192;6.788;2022-12-19T15:07:33;21.00;45.40
909;DHT22;441;51.192;6.788;2022-12-19T15:10:07;21.10;44.50
909;DHT22;441;51.192;6.788;2022-12-19T15:12:47;21.10;44.30
909;DHT22;441;51.192;6.788;2022-12-19T15:15:37;21.20;44.50
909;DHT22;441;51.192;6.788;2022-12-19T15:18:18;21.40;44.70
909;DHT22;441;51.192;6.788;2022-12-19T15:20:46;21.40;44.60
909;DHT22;441;51.192;6.788;2022-12-19T15:23:13;21.50;45.10
909;DHT22;441;51.192;6.788;2022-12-19T15:25:41;21.50;45.00
909;DHT22;441;51.192;6.788;2022-12-19T15:28:12;21.50;45.00
909;DHT22;441;51.192;6.788;2022-12-19T15:30:41;21.50;44.50
909;DHT22;441;51.192;6.788;2022-12-19T15:33:12;21.60;44.40
909;DHT22;441;51.192;6.788;2022-12-19T15:35:39;21.60;44.00
909;DHT22;441;51.192;6.788;2022-12-19T15:38:05;21.60;44.30
909;DHT22;441;51.192;6.788;2022-12-19T15:40:32;21.60;45.00
909;DHT22;441;51.192;6.788;2022-12-19T15:43:01;21.60;44.50
909;DHT22;441;51.192;6.788;2022-12-19T15:45:29;21.60;44.30
909;DHT22;441;51.192;6.788;2022-12-19T15:47:57;21.60;44.70
909;DHT22;441;51.192;6.788;2022-12-19T15:50:26;21.60;44.40
909;DHT22;441;51.192;6.788;2022-12-19T15:52:56;21.60;44.30
909;DHT22;441;51.192;6.788;2022-12-19T15:55:26;21.60;44.30
909;DHT22;441;51.192;6.788;2022-12-19T15:57:56;21.70;44.40
909;DHT22;441;51.192;6.788;2022-12-19T16:00:27;21.70;44.60
909;DHT22;441;51.192;6.788;2022-12-19T16:02:55;21.70;44.50
909;DHT22;441;51.192;6.788;2022-12-19T16:05:23;21.70;44.50
909;DHT22;441;51.192;6.788;2022-12-19T16:07:50;21.70;44.50
909;DHT22;441;51.192;6.788;2022-12-19T16:10:18;21.70;44.00
909;DHT22;441;51.192;6.788;2022-12-19T16:12:47;21.70;43.80
909;DHT22;441;51.192;6.788;2022-12-19T16:15:20;21.70;43.90
909;DHT22;441;51.192;6.788;2022-12-19T16:17:50;21.70;44.10
909;DHT22;441;51.192;6.788;2022-12-19T16:20:18;21.70;44.20
909;DHT22;441;51.192;6.788;2022-12-19T16:22:46;21.80;44.40
909;DHT22;441;51.192;6.788;2022-12-19T16:25:13;21.80;44.10
909;DHT22;441;51.192;6.788;2022-12-19T16:27:40;21.80;43.80
909;DHT22;441;51.192;6.788;2022-12-19T16:30:20;21.80;43.90
909;DHT22;441;51.192;6.788;2022-12-19T16:32:47;21.90;44.20
909;DHT22;441;51.192;6.788;2022-12-19T16:35:18;21.90;43.90
909;DHT22;441;51.192;6.788;2022-12-19T16:37:46;22.00;43.80
909;DHT22;441;51.192;6.788;2022-12-19T16:40:15;22.00;43.80
909;DHT22;441;51.192;6.788;2022-12-19T16:42:43;22.00;43.60
909;DHT22;441;51.192;6.788;2022-12-19T16:45:19;22.10;43.70
909;DHT22;441;51.192;6.788;2022-12-19T16:47:46;22.10;43.70
909;DHT22;441;51.192;6.788;2022-12-19T16:50:21;22.10;43.50
909;DHT22;441;51.192;6.788;2022-12-19T16:52:49;22.10;43.60
909;DHT22;441;51.192;6.788;2022-12-19T16:55:16;22.10;43.60
909;DHT22;441;51.192;6.788;2022-12-19T16:57:45;22.20;43.70
909;DHT22;441;51.192;6.788;2022-12-19T17:00:15;22.20;43.70
909;DHT22;441;51.192;6.788;2022-12-19T17:02:46;22.30;43.80
909;DHT22;441;51.192;6.788;2022-12-19T17:05:20;22.30;43.80
909;DHT22;441;51.192;6.788;2022-12-19T17:07:48;22.40;43.80
909;DHT22;441;51.192;6.788;2022-12-19T17:10:16;22.40;43.70
909;DHT22;441;51.192;6.788;2022-12-19T17:12:44;22.50;43.80
909;DHT22;441;51.192;6.788;2022-12-19T17:15:21;22.60;43.90
909;DHT22;441;51.192;6.788;2022-12-19T17:17:50;22.70;44.00